createdAt,value
2023-04-07T00:00:50.739Z,12.93
2023-04-07T00:03:20.894Z,13.63
2023-04-07T00:05:51.107Z,13.37
2023-04-07T00:08:21.234Z,13.80
2023-04-07T00:10:51.003Z,14.93
2023-04-07T00:13:20.752Z,14.33
2023-04-07T00:15:53.110Z,13.80
2023-04-07T00:18:22.935Z,13.87
2023-04-07T00:20:52.809Z,12.87
2023-04-07T00:23:22.876Z,14.10
2023-04-07T00:25:52.780Z,13.80
2023-04-07T00:28:22.876Z,13.97
2023-04-07T00:30:55.356Z,13.43
2023-04-07T00:33:25.184Z,14.30
2023-04-07T00:35:55.150Z,14.50
2023-04-07T00:38:24.896Z,13.70
2023-04-07T00:41:01.005Z,14.10
2023-04-07T00:43:30.806Z,15.07
2023-04-07T00:46:03.942Z,14.47
2023-04-07T00:48:34.435Z,13.60
2023-04-07T00:51:05.960Z,15.00
2023-04-07T00:53:36.108Z,14.80
2023-04-07T00:56:06.643Z,15.17
2023-04-07T00:58:36.472Z,14.50
2023-04-07T01:01:13.758Z,14.07
2023-04-07T01:03:49.532Z,14.67
2023-04-07T01:06:23.043Z,14.83
2023-04-07T01:08:57.591Z,15.10
2023-04-07T01:11:31.347Z,15.33
2023-04-07T01:14:03.388Z,14.97
2023-04-07T01:16:46.005Z,14.63
2023-04-07T01:19:22.773Z,14.50
2023-04-07T01:22:00.983Z,13.03
2023-04-07T01:24:49.073Z,12.70
2023-04-07T01:27:28.102Z,13.20
2023-04-07T01:30:04.343Z,10.33
2023-04-07T01:32:37.072Z,10.53
2023-04-07T01:35:10.266Z,9.60
2023-04-07T01:37:41.644Z,10.20
2023-04-07T01:40:12.949Z,9.00
2023-04-07T01:42:43.933Z,10.03
2023-04-07T01:45:17.879Z,9.17
2023-04-07T01:47:48.413Z,9.90
2023-04-07T01:50:19.259Z,10.17
2023-04-07T01:52:49.258Z,9.97
2023-04-07T01:55:19.115Z,9.80
2023-04-07T01:57:58.129Z,10.17
2023-04-07T02:00:30.818Z,10.40
2023-04-07T02:03:08.393Z,9.43
2023-04-07T02:05:41.550Z,10.30
2023-04-07T02:08:14.892Z,9.37
2023-04-07T02:10:45.531Z,9.63
2023-04-07T02:13:19.685Z,10.57
2023-04-07T02:15:56.558Z,9.80
2023-04-07T02:18:28.090Z,10.33
2023-04-07T02:20:59.127Z,11.00
2023-04-07T02:23:29.022Z,9.67
2023-04-07T02:26:02.087Z,10.80
2023-04-07T02:28:31.904Z,10.60
2023-04-07T02:31:04.338Z,11.60
2023-04-07T02:33:35.657Z,10.13
2023-04-07T02:36:05.520Z,11.20
2023-04-07T02:38:35.529Z,11.40
2023-04-07T02:41:07.633Z,11.77
2023-04-07T02:43:37.420Z,11.00
2023-04-07T02:46:09.956Z,11.90
2023-04-07T02:48:39.807Z,10.90
2023-04-07T02:51:09.661Z,10.60
2023-04-07T02:53:39.564Z,11.07
2023-04-07T02:56:09.886Z,10.70
2023-04-07T02:58:39.724Z,11.23
2023-04-07T03:01:12.234Z,10.63
2023-04-07T03:03:42.535Z,11.50
2023-04-07T03:06:23.084Z,10.73
2023-04-07T03:09:04.447Z,11.23
2023-04-07T03:11:34.277Z,11.27
2023-04-07T03:14:04.211Z,10.80
2023-04-07T03:16:37.914Z,10.93
2023-04-07T03:19:12.954Z,10.80
2023-04-07T03:21:48.826Z,11.30
2023-04-07T03:24:18.762Z,11.23
2023-04-07T03:26:51.489Z,10.73
2023-04-07T03:29:30.152Z,10.50
2023-04-07T03:32:02.675Z,9.90
2023-04-07T03:34:32.507Z,10.20
2023-04-07T03:37:02.392Z,11.03
2023-04-07T03:39:37.509Z,9.50
2023-04-07T03:42:15.835Z,10.47
2023-04-07T03:44:46.649Z,8.93
2023-04-07T03:47:19.225Z,10.50
2023-04-07T03:49:55.536Z,9.80
2023-04-07T03:52:25.994Z,10.00
2023-04-07T03:55:02.221Z,10.47
2023-04-07T03:57:34.997Z,9.77
2023-04-07T04:00:06.045Z,9.03
2023-04-07T04:02:48.730Z,9.53
2023-04-07T04:05:22.476Z,8.80
2023-04-07T04:07:53.644Z,10.13
2023-04-07T04:10:25.725Z,9.77
2023-04-07T04:12:57.116Z,10.10
2023-04-07T04:15:26.921Z,9.60
2023-04-07T04:17:59.992Z,9.63
2023-04-07T04:20:30.143Z,9.13
2023-04-07T04:23:00.029Z,9.53
2023-04-07T04:25:30.036Z,9.40
2023-04-07T04:28:01.017Z,10.33
2023-04-07T04:30:31.106Z,9.77
2023-04-07T04:33:07.853Z,8.90
2023-04-07T04:35:44.470Z,9.60
2023-04-07T04:38:17.885Z,10.03
2023-04-07T04:40:54.494Z,9.40
2023-04-07T04:43:29.678Z,9.83
2023-04-07T04:45:59.904Z,9.43
2023-04-07T04:48:34.933Z,10.63
2023-04-07T04:51:08.906Z,10.90
2023-04-07T04:53:40.860Z,10.50
2023-04-07T04:56:11.390Z,11.57
2023-04-07T04:58:48.823Z,11.30
2023-04-07T05:01:27.137Z,12.47
2023-04-07T05:04:09.880Z,12.93
2023-04-07T05:06:42.075Z,12.00
2023-04-07T05:09:14.553Z,13.00
2023-04-07T05:11:47.425Z,13.43
2023-04-07T05:14:20.662Z,12.63
2023-04-07T05:16:57.172Z,12.43
2023-04-07T05:19:33.783Z,13.13
2023-04-07T05:22:10.770Z,13.87
2023-04-07T05:24:47.131Z,13.00
2023-04-07T05:27:16.894Z,13.67
2023-04-07T05:29:49.633Z,12.73
2023-04-07T05:32:27.780Z,12.70
2023-04-07T05:35:02.685Z,14.80
2023-04-07T05:37:36.115Z,13.00
2023-04-07T05:40:09.486Z,12.90
2023-04-07T05:42:39.270Z,12.67
2023-04-07T05:45:10.806Z,12.53
2023-04-07T05:47:44.555Z,12.80
2023-04-07T05:50:17.374Z,12.30
2023-04-07T05:52:49.803Z,12.47
2023-04-07T05:55:27.340Z,13.37
2023-04-07T05:57:58.237Z,13.07
2023-04-07T06:00:32.053Z,14.07
2023-04-07T06:03:08.358Z,12.47
2023-04-07T06:05:52.600Z,13.93
2023-04-07T06:08:24.205Z,12.27
2023-04-07T06:10:54.010Z,13.20
2023-04-07T06:13:23.793Z,12.20
2023-04-07T06:15:53.542Z,13.03
2023-04-07T06:18:23.335Z,12.27
2023-04-07T06:20:55.887Z,11.80
2023-04-07T06:23:25.764Z,12.67
2023-04-07T06:25:55.589Z,12.73
2023-04-07T06:28:25.903Z,12.60
2023-04-07T06:30:57.604Z,13.67
2023-04-07T06:33:28.813Z,14.27
2023-04-07T06:36:03.332Z,12.77
2023-04-07T06:38:33.491Z,13.23
2023-04-07T06:41:03.347Z,12.67
2023-04-07T06:43:33.332Z,12.77
2023-04-07T06:46:09.930Z,12.77
2023-04-07T06:48:39.914Z,12.53
2023-04-07T06:51:12.422Z,12.33
2023-04-07T06:53:42.177Z,12.27
2023-04-07T06:56:13.676Z,12.50
2023-04-07T06:58:43.588Z,12.17
2023-04-07T07:01:13.349Z,12.90
2023-04-07T07:03:43.261Z,13.43
2023-04-07T07:06:15.718Z,12.10
2023-04-07T07:08:45.515Z,13.40
2023-04-07T07:11:15.280Z,12.37
2023-04-07T07:13:45.352Z,13.33
2023-04-07T07:16:15.794Z,13.53
2023-04-07T07:18:45.794Z,12.63
2023-04-07T07:21:20.498Z,13.10
2023-04-07T07:23:50.392Z,11.27
2023-04-07T07:26:21.031Z,10.90
2023-04-07T07:28:50.844Z,11.33
2023-04-07T07:31:20.694Z,11.33
2023-04-07T07:33:52.017Z,12.33
2023-04-07T07:36:25.137Z,12.80
2023-04-07T07:38:55.406Z,12.97
2023-04-07T07:41:26.687Z,13.17
2023-04-07T07:43:56.709Z,13.40
2023-04-07T07:46:27.508Z,12.83
2023-04-07T07:48:57.266Z,12.00
2023-04-07T07:51:30.194Z,13.33
2023-04-07T07:54:00.245Z,14.03
2023-04-07T07:56:30.451Z,13.80
2023-04-07T07:59:00.344Z,12.27
2023-04-07T08:01:30.412Z,13.87
2023-04-07T08:04:00.404Z,12.47
2023-04-07T08:06:33.748Z,13.50
2023-04-07T08:09:03.797Z,13.40
2023-04-07T08:11:33.814Z,12.50
2023-04-07T08:14:03.943Z,13.73
2023-04-07T08:16:33.930Z,13.17
2023-04-07T08:19:04.056Z,12.60
2023-04-07T08:21:36.896Z,12.43
2023-04-07T08:24:07.344Z,13.17
2023-04-07T08:26:37.799Z,12.80
2023-04-07T08:29:08.125Z,12.17
2023-04-07T08:31:38.119Z,12.30
2023-04-07T08:34:08.040Z,14.50
2023-04-07T08:36:43.945Z,13.33
2023-04-07T08:39:17.887Z,11.83
2023-04-07T08:41:50.006Z,11.50
2023-04-07T08:44:22.953Z,11.10
2023-04-07T08:46:56.253Z,11.00
2023-04-07T08:49:28.149Z,12.13
2023-04-07T08:52:05.232Z,10.53
2023-04-07T08:54:37.937Z,11.20
2023-04-07T08:57:09.915Z,12.80
2023-04-07T08:59:44.422Z,11.50
2023-04-07T09:02:17.095Z,12.60
2023-04-07T09:04:48.197Z,12.83
2023-04-07T09:07:23.589Z,12.30
2023-04-07T09:09:53.726Z,12.07
2023-04-07T09:12:25.338Z,13.17
2023-04-07T09:15:00.998Z,12.90
2023-04-07T09:17:34.121Z,12.63
2023-04-07T09:20:05.245Z,12.93
2023-04-07T09:22:42.672Z,13.27
2023-04-07T09:25:14.850Z,12.83
2023-04-07T09:27:44.720Z,13.30
2023-04-07T09:30:16.633Z,14.30
2023-04-07T09:32:46.531Z,14.47
2023-04-07T09:35:16.371Z,13.30
2023-04-07T09:38:06.467Z,13.13
2023-04-07T09:40:36.818Z,13.53
2023-04-07T09:43:08.235Z,13.57
2023-04-07T09:45:39.613Z,13.80
2023-04-07T09:48:09.991Z,12.80
2023-04-07T09:50:42.288Z,13.13
2023-04-07T09:53:14.683Z,13.20
2023-04-07T09:55:45.357Z,14.07
2023-04-07T09:58:17.127Z,13.73
2023-04-07T10:00:48.280Z,13.03
2023-04-07T10:03:18.514Z,12.90
2023-04-07T10:05:49.779Z,13.70
2023-04-07T10:08:22.386Z,13.67
2023-04-07T10:10:52.778Z,13.50
2023-04-07T10:13:24.505Z,12.77
2023-04-07T10:15:55.194Z,13.67
2023-04-07T10:18:28.969Z,14.03
2023-04-07T10:20:59.991Z,13.73
2023-04-07T10:23:40.336Z,13.10
2023-04-07T10:26:11.829Z,12.80
2023-04-07T10:28:46.482Z,12.90
2023-04-07T10:31:17.112Z,12.23
2023-04-07T10:33:52.239Z,12.67
2023-04-07T10:36:23.293Z,12.03
2023-04-07T10:39:24.286Z,12.70
2023-04-07T10:41:57.399Z,12.77
2023-04-07T10:44:50.696Z,12.27
2023-04-07T10:47:20.535Z,13.23
2023-04-07T10:50:18.729Z,11.33
2023-04-07T10:52:49.487Z,12.17
2023-04-07T10:55:33.314Z,11.67
2023-04-07T10:58:24.755Z,11.40
2023-04-07T11:01:30.494Z,11.37
2023-04-07T11:04:05.082Z,11.50
2023-04-07T11:06:34.980Z,11.40
2023-04-07T11:09:04.735Z,11.87
2023-04-07T11:11:46.451Z,12.13
2023-04-07T11:14:28.643Z,11.90
2023-04-07T11:16:59.342Z,10.83
2023-04-07T11:19:29.130Z,10.23
2023-04-07T11:22:29.347Z,10.30
2023-04-07T11:25:00.336Z,10.13
2023-04-07T11:27:30.166Z,9.80
2023-04-07T11:30:03.381Z,10.20
2023-04-07T11:32:33.138Z,9.57
2023-04-07T11:35:02.945Z,10.23
2023-04-07T11:37:32.889Z,9.93
2023-04-07T11:40:02.704Z,9.40
2023-04-07T11:42:36.366Z,10.00
2023-04-07T11:45:19.358Z,10.15
2023-04-07T11:47:51.163Z,9.53
2023-04-07T11:50:41.476Z,9.20
2023-04-07T11:53:12.201Z,10.60
2023-04-07T11:55:42.223Z,9.67
2023-04-07T11:58:12.752Z,10.30
2023-04-07T12:01:05.154Z,11.00
2023-04-07T12:03:35.079Z,9.63
2023-04-07T12:06:05.708Z,10.30
2023-04-07T12:08:42.926Z,9.43
2023-04-07T12:11:13.504Z,10.83
2023-04-07T12:13:43.321Z,10.20
2023-04-07T12:16:15.702Z,10.13
2023-04-07T12:18:45.491Z,10.10
2023-04-07T12:21:15.842Z,10.33
2023-04-07T12:23:46.152Z,10.70
2023-04-07T12:26:16.438Z,10.60
2023-04-07T12:28:46.185Z,11.30
2023-04-07T12:31:18.566Z,10.83
2023-04-07T12:33:48.651Z,11.07
2023-04-07T12:36:18.729Z,10.37
2023-04-07T12:38:48.577Z,11.33
2023-04-07T12:41:18.314Z,11.80
2023-04-07T12:43:48.387Z,11.30
2023-04-07T12:46:21.895Z,10.30
2023-04-07T12:48:51.785Z,10.50
2023-04-07T12:51:21.598Z,10.37
2023-04-07T12:53:51.432Z,12.10
2023-04-07T12:56:22.573Z,10.43
2023-04-07T12:58:53.625Z,11.00
2023-04-07T13:01:26.198Z,11.17
2023-04-07T13:03:56.429Z,10.40
2023-04-07T13:06:26.258Z,10.97
2023-04-07T13:08:56.644Z,11.37
2023-04-07T13:11:26.560Z,10.60
2023-04-07T13:13:57.962Z,11.23
2023-04-07T13:16:31.721Z,10.37
2023-04-07T13:19:02.222Z,9.70
2023-04-07T13:24:05.179Z,10.47
2023-04-07T13:26:34.890Z,10.67
2023-04-07T13:29:04.636Z,10.57
2023-04-07T13:31:36.980Z,11.23
2023-04-07T13:34:06.739Z,9.67
2023-04-07T13:36:37.664Z,10.03
2023-04-07T13:39:07.434Z,10.40
2023-04-07T13:41:37.257Z,10.10
2023-04-07T13:44:07.059Z,10.50
2023-04-07T13:46:39.399Z,10.97
2023-04-07T13:49:09.171Z,10.10
2023-04-07T13:51:38.968Z,9.90
2023-04-07T13:54:08.711Z,10.40
2023-04-07T13:56:38.728Z,10.87
2023-04-07T13:59:08.846Z,10.77
2023-04-07T14:01:42.043Z,11.00
2023-04-07T14:04:12.590Z,11.13
2023-04-07T14:06:42.386Z,11.50
2023-04-07T14:09:12.161Z,10.90
2023-04-07T14:11:42.167Z,11.10
2023-04-07T14:14:11.902Z,9.40
2023-04-07T14:16:44.732Z,10.80
2023-04-07T14:19:14.727Z,8.97
2023-04-07T14:21:44.440Z,10.73
2023-04-07T14:24:14.231Z,11.13
2023-04-07T14:26:45.678Z,10.10
2023-04-07T14:29:16.106Z,9.70
2023-04-07T14:31:48.820Z,10.17
2023-04-07T14:34:18.658Z,9.63
2023-04-07T14:36:56.401Z,10.23
2023-04-07T14:39:26.945Z,9.17
2023-04-07T14:41:56.732Z,9.03
2023-04-07T14:44:26.500Z,8.10
2023-04-07T14:46:58.942Z,9.97
2023-04-07T14:49:29.053Z,9.13
2023-04-07T14:51:58.839Z,9.17
2023-04-07T14:54:28.810Z,8.90
2023-04-07T14:56:58.801Z,9.30
2023-04-07T14:59:28.580Z,9.27
2023-04-07T15:02:01.162Z,10.00
2023-04-07T15:04:31.088Z,8.97
2023-04-07T15:07:00.939Z,8.03
2023-04-07T15:09:31.437Z,9.60
2023-04-07T15:12:02.267Z,8.50
2023-04-07T15:14:32.385Z,9.53
2023-04-07T15:17:04.975Z,9.60
2023-04-07T15:19:34.747Z,8.60
2023-04-07T15:22:04.497Z,9.57
2023-04-07T15:24:34.245Z,8.27
2023-04-07T15:27:03.981Z,9.20
2023-04-07T15:29:33.724Z,8.50
2023-04-07T15:32:06.415Z,8.83
2023-04-07T15:34:36.202Z,8.00
2023-04-07T15:37:06.252Z,7.40
2023-04-07T15:39:36.106Z,8.20
2023-04-07T15:42:08.254Z,8.87
2023-04-07T15:44:39.927Z,8.37
2023-04-07T15:47:12.495Z,8.03
2023-04-07T15:49:42.508Z,8.17
2023-04-07T15:52:13.741Z,7.83
2023-04-07T15:54:43.542Z,7.10
2023-04-07T15:57:13.395Z,7.90
2023-04-07T15:59:43.135Z,7.37
2023-04-07T16:02:15.773Z,6.50
2023-04-07T16:04:47.574Z,6.53
2023-04-07T16:07:17.290Z,7.03
2023-04-07T16:09:47.003Z,6.73
2023-04-07T16:12:17.395Z,6.97
2023-04-07T16:14:47.366Z,9.00
2023-04-07T16:17:19.712Z,6.70
2023-04-07T16:19:49.514Z,11.70
2023-04-07T16:22:19.287Z,7.70
2023-04-07T16:24:49.038Z,7.60
2023-04-07T16:27:18.822Z,9.77
2023-04-07T16:29:48.777Z,7.63
2023-04-07T16:32:21.078Z,8.57
2023-04-07T16:34:50.978Z,7.33
2023-04-07T16:37:20.745Z,8.97
2023-04-07T16:39:50.772Z,8.13
2023-04-07T16:42:20.580Z,7.63
2023-04-07T16:44:50.390Z,7.80
2023-04-07T16:47:23.133Z,6.73
2023-04-07T16:49:53.131Z,6.33
2023-04-07T16:52:23.251Z,7.37
2023-04-07T16:54:53.258Z,7.30
2023-04-07T16:57:23.056Z,7.00
2023-04-07T16:59:52.970Z,7.00
2023-04-07T17:02:27.591Z,7.53
2023-04-07T17:04:57.576Z,5.60
2023-04-07T17:07:27.471Z,6.03
2023-04-07T17:09:57.303Z,6.40
2023-04-07T17:12:27.053Z,7.40
2023-04-07T17:14:56.775Z,7.03
2023-04-07T17:17:29.221Z,7.47
2023-04-07T17:19:59.873Z,6.97
2023-04-07T17:22:29.599Z,5.43
2023-04-07T17:24:59.341Z,6.10
2023-04-07T17:27:29.121Z,6.57
2023-04-07T17:29:59.361Z,6.53
2023-04-07T17:32:31.888Z,5.87
2023-04-07T17:35:01.659Z,4.90
2023-04-07T17:37:31.966Z,4.73
2023-04-07T17:40:01.897Z,4.80
2023-04-07T17:42:31.665Z,4.70
2023-04-07T17:45:01.967Z,5.70
2023-04-07T17:47:34.388Z,5.57
2023-04-07T17:50:04.616Z,4.90
2023-04-07T17:52:34.401Z,4.37
2023-04-07T17:55:06.804Z,5.30
2023-04-07T17:57:36.798Z,5.30
2023-04-07T18:00:08.238Z,6.20
2023-04-07T18:02:51.581Z,5.50
2023-04-07T18:05:23.715Z,5.60
2023-04-07T18:07:55.181Z,4.97
2023-04-07T18:10:26.585Z,6.00
2023-04-07T18:12:57.270Z,5.90
2023-04-07T18:15:28.507Z,5.63
2023-04-07T18:18:02.594Z,7.10
2023-04-07T18:20:34.829Z,5.70
2023-04-07T18:23:05.491Z,5.93
2023-04-07T18:25:37.737Z,6.50
2023-04-07T18:28:08.717Z,5.73
2023-04-07T18:30:39.564Z,6.37
2023-04-07T18:33:15.097Z,6.07
2023-04-07T18:35:55.946Z,5.77
2023-04-07T18:38:26.838Z,4.93
2023-04-07T18:40:58.672Z,5.47
2023-04-07T18:43:30.383Z,5.33
2023-04-07T18:46:00.772Z,5.60
2023-04-07T18:48:39.739Z,5.20
2023-04-07T18:51:10.424Z,5.70
2023-04-07T18:53:40.240Z,5.70
2023-04-07T18:56:10.097Z,5.97
2023-04-07T18:58:45.014Z,5.43
2023-04-07T19:01:15.925Z,6.70
2023-04-07T19:03:48.833Z,5.87
2023-04-07T19:06:19.642Z,6.30
2023-04-07T19:08:50.077Z,5.30
2023-04-07T19:11:20.696Z,6.10
2023-04-07T19:13:52.448Z,6.30
2023-04-07T19:16:24.631Z,6.00
2023-04-07T19:18:57.354Z,6.43
2023-04-07T19:21:27.729Z,5.97
2023-04-07T19:23:59.552Z,6.30
2023-04-07T19:26:29.765Z,5.80
2023-04-07T19:29:00.019Z,6.23
2023-04-07T19:31:29.823Z,5.00
2023-04-07T19:34:02.155Z,4.90
2023-04-07T19:36:33.039Z,4.40
2023-04-07T19:39:04.804Z,4.83
2023-04-07T19:41:34.652Z,5.43
2023-04-07T19:44:04.506Z,4.77
2023-04-07T19:46:34.811Z,4.37
2023-04-07T19:49:07.191Z,3.70
2023-04-07T19:51:36.960Z,3.60
2023-04-07T19:54:06.800Z,3.60
2023-04-07T19:56:36.541Z,4.47
2023-04-07T19:59:06.352Z,3.57
2023-04-07T20:01:36.159Z,3.67
2023-04-07T20:04:08.826Z,3.73
2023-04-07T20:06:40.691Z,3.20
2023-04-07T20:09:10.674Z,3.90
2023-04-07T20:11:40.472Z,3.40
2023-04-07T20:14:10.233Z,4.60
2023-04-07T20:16:40.113Z,3.63
2023-04-07T20:19:12.490Z,4.13
2023-04-07T20:21:42.279Z,4.67
2023-04-07T20:24:12.135Z,4.10
2023-04-07T20:26:42.033Z,4.40
2023-04-07T20:29:11.746Z,3.60
2023-04-07T20:31:41.546Z,4.23
2023-04-07T20:34:13.851Z,4.57
2023-04-07T20:36:43.711Z,3.97
2023-04-07T20:39:13.455Z,3.90
2023-04-07T20:41:45.263Z,3.90
2023-04-07T20:44:15.112Z,3.60
2023-04-07T20:46:47.015Z,4.13
2023-04-07T20:49:19.465Z,4.03
2023-04-07T20:51:49.178Z,3.70
2023-04-07T20:54:18.925Z,3.70
2023-04-07T20:56:48.643Z,3.83
2023-04-07T20:59:18.388Z,3.37
2023-04-07T21:01:48.389Z,3.10
2023-04-07T21:04:21.026Z,3.30
2023-04-07T21:06:51.005Z,3.07
2023-04-07T21:09:20.747Z,3.20
2023-04-07T21:11:50.489Z,4.00
2023-04-07T21:14:20.218Z,3.43
2023-04-07T21:16:50.009Z,2.53
2023-04-07T21:19:22.401Z,4.63
2023-04-07T21:21:52.160Z,3.30
2023-04-07T21:24:21.955Z,2.70
2023-04-07T21:26:51.790Z,3.30
2023-04-07T21:29:21.884Z,2.97
2023-04-07T21:31:51.651Z,3.27
2023-04-07T21:34:23.976Z,2.97
2023-04-07T21:36:53.762Z,3.50
2023-04-07T21:39:23.557Z,3.57
2023-04-07T21:41:53.316Z,3.17
2023-04-07T21:44:23.532Z,3.03
2023-04-07T21:46:53.450Z,3.53
2023-04-07T21:49:26.040Z,3.53
2023-04-07T21:51:55.790Z,3.73
2023-04-07T21:54:26.055Z,4.30
2023-04-07T21:56:57.303Z,3.80
2023-04-07T21:59:27.464Z,3.10
2023-04-07T22:02:00.684Z,3.40
2023-04-07T22:04:33.412Z,3.30
2023-04-07T22:07:04.064Z,3.33
2023-04-07T22:09:33.847Z,4.30
2023-04-07T22:12:03.645Z,3.23
2023-04-07T22:14:33.430Z,3.90
2023-04-07T22:17:03.830Z,4.33
2023-04-07T22:19:36.196Z,4.30
2023-04-07T22:22:07.825Z,4.07
2023-04-07T22:24:37.623Z,3.63
2023-04-07T22:27:07.382Z,3.17
2023-04-07T22:29:37.101Z,3.23
2023-04-07T22:32:06.998Z,4.70
2023-04-07T22:34:39.316Z,4.63
2023-04-07T22:37:09.041Z,4.23
2023-04-07T22:39:39.234Z,4.03
2023-04-07T22:42:08.983Z,4.40
2023-04-07T22:44:38.706Z,4.30
2023-04-07T22:47:09.249Z,5.00
2023-04-07T22:49:42.204Z,4.10
2023-04-07T22:52:11.986Z,4.40
2023-04-07T22:54:41.726Z,5.00
2023-04-07T22:57:11.570Z,4.50
2023-04-07T22:59:41.312Z,4.53
2023-04-07T23:02:11.191Z,4.53
2023-04-07T23:04:43.605Z,4.20
2023-04-07T23:07:13.343Z,5.10
2023-04-07T23:09:43.083Z,4.60
2023-04-07T23:12:12.848Z,4.80
2023-04-07T23:14:42.594Z,4.47
2023-04-07T23:17:12.481Z,5.90
2023-04-07T23:19:44.856Z,5.97
2023-04-07T23:22:14.722Z,5.10
2023-04-07T23:24:44.519Z,5.20
2023-04-07T23:27:14.226Z,6.50
2023-04-07T23:29:43.962Z,5.67
2023-04-07T23:32:14.062Z,5.83
2023-04-07T23:34:46.845Z,6.20
2023-04-07T23:37:16.645Z,5.80
2023-04-07T23:39:46.695Z,6.10
2023-04-07T23:42:18.101Z,5.40
2023-04-07T23:44:48.311Z,6.20
2023-04-07T23:47:18.119Z,6.00
2023-04-07T23:49:50.428Z,5.70
2023-04-07T23:52:21.653Z,5.93
2023-04-07T23:54:51.358Z,6.57
2023-04-07T23:57:21.085Z,6.20
2023-04-07T23:59:50.900Z,6.63
